Time;durP1;ratioP1;P1;durP2;ratioP2;P2;SDS_P1;SDS_P2;PMS_P1;PMS_P2;Temp;Humidity;BMP_temperature;BMP_pressure;BME280_temperature;BME280_humidity;BME280_pressure;Samples;Min_cycle;Max_cycle;Signal;HPM_P1;HPM_P2
2023/01/16 00:01:20;;;;;;;23.52;17.92;;;9.90;96.60;;;;;;6307848;22;20066;-90
2023/01/16 00:03:46;;;;;;;25.05;17.92;;;9.70;96.20;;;;;;6307701;22;20003;-90
2023/01/16 00:06:12;;;;;;;17.80;13.75;;;9.60;96.60;;;;;;6307310;22;20435;-90
2023/01/16 00:08:38;;;;;;;19.08;14.15;;;9.50;96.80;;;;;;6280097;22;20337;-90
2023/01/16 00:11:04;;;;;;;15.85;12.70;;;9.50;96.80;;;;;;6307248;22;20002;-86
2023/01/16 00:13:29;;;;;;;20.88;15.75;;;9.50;96.80;;;;;;6307418;22;20002;-86
2023/01/16 00:15:55;;;;;;;18.73;14.88;;;9.40;96.80;;;;;;6307045;22;20083;-86
2023/01/16 00:18:21;;;;;;;17.77;14.23;;;9.50;96.90;;;;;;6306825;22;20003;-86
2023/01/16 00:20:48;;;;;;;18.65;15.18;;;9.50;96.80;;;;;;6307588;22;20021;-88
2023/01/16 00:23:14;;;;;;;20.95;15.02;;;9.50;96.80;;;;;;6308027;22;20070;-88
2023/01/16 00:25:43;;;;;;;19.63;15.57;;;9.50;96.90;;;;;;6307405;22;20057;-87
2023/01/16 00:28:11;;;;;;;18.63;14.20;;;9.50;96.90;;;;;;6307013;22;20347;-87
2023/01/16 00:30:37;;;;;;;16.73;14.52;;;9.50;96.80;;;;;;6307278;22;20082;-88
2023/01/16 00:33:04;;;;;;;19.63;15.98;;;9.60;96.80;;;;;;6280052;22;20402;-86
2023/01/16 00:35:30;;;;;;;21.15;16.65;;;9.70;96.70;;;;;;6307186;22;20353;-82
2023/01/16 00:37:56;;;;;;;26.02;17.50;;;9.70;96.60;;;;;;6280392;22;20007;-81
2023/01/16 00:40:22;;;;;;;19.30;15.70;;;9.60;96.60;;;;;;6306991;22;20091;-81
2023/01/16 00:42:48;;;;;;;21.80;16.08;;;9.60;96.70;;;;;;6307190;22;20003;-81
2023/01/16 00:45:14;;;;;;;20.38;16.55;;;9.60;96.70;;;;;;6306354;22;20473;-82
2023/01/16 00:47:39;;;;;;;23.20;17.55;;;9.60;96.60;;;;;;6306931;22;20495;-83
2023/01/16 00:50:06;;;;;;;21.10;15.73;;;9.60;96.60;;;;;;6306983;22;19999;-83
2023/01/16 00:52:32;;;;;;;21.63;16.52;;;9.60;96.60;;;;;;6307124;22;20086;-81
2023/01/16 00:54:57;;;;;;;20.33;15.98;;;9.60;96.60;;;;;;6307166;22;20023;-80
2023/01/16 00:57:23;;;;;;;20.20;16.30;;;9.60;96.60;;;;;;6306443;22;20003;-80
2023/01/16 00:59:49;;;;;;;22.67;17.02;;;9.60;96.60;;;;;;6308422;22;20380;-80
2023/01/16 01:02:14;;;;;;;21.83;15.93;;;9.60;96.60;;;;;;6309179;22;20015;-80
2023/01/16 01:04:40;;;;;;;21.45;16.67;;;9.60;96.60;;;;;;6309127;22;20434;-81
2023/01/16 01:07:06;;;;;;;19.92;15.15;;;9.70;96.60;;;;;;6308764;22;20003;-82
2023/01/16 01:09:32;;;;;;;24.42;16.77;;;9.70;96.50;;;;;;6308547;22;19999;-81
2023/01/16 01:11:58;;;;;;;18.92;15.27;;;;;;;;;;6308253;22;20006;-80
2023/01/16 01:14:25;;;;;;;19.25;14.77;;;9.70;96.20;;;;;;6308705;22;19996;-81
2023/01/16 01:16:50;;;;;;;22.10;16.23;;;9.70;96.40;;;;;;6308758;22;20007;-81
2023/01/16 01:19:16;;;;;;;18.50;14.80;;;9.60;96.40;;;;;;6281543;22;20368;-81
2023/01/16 01:24:40;;;;;;;16.77;13.50;;;;;;;;;;6257918;22;20321;-81
2023/01/16 01:27:06;;;;;;;19.27;14.52;;;9.60;96.20;;;;;;6308100;22;20011;-82
2023/01/16 01:29:31;;;;;;;16.80;14.15;;;9.60;96.50;;;;;;6307198;22;19999;-81
2023/01/16 01:31:57;;;;;;;19.70;14.95;;;9.70;96.50;;;;;;6308732;22;20002;-81
2023/01/16 01:34:23;;;;;;;17.52;13.75;;;9.70;96.40;;;;;;6308594;22;20000;-82
2023/01/16 01:36:48;;;;;;;19.33;13.45;;;9.70;96.50;;;;;;6308926;22;20003;-82
2023/01/16 01:39:14;;;;;;;18.35;13.95;;;9.70;96.40;;;;;;6309263;22;20007;-82
2023/01/16 01:41:40;;;;;;;17.25;13.70;;;9.70;96.30;;;;;;6309103;22;20003;-82
2023/01/16 01:44:44;;;;;;;16.70;13.10;;;9.70;96.20;;;;;;6308642;22;20021;-81
2023/01/16 01:47:10;;;;;;;17.88;13.40;;;9.70;96.30;;;;;;6308454;22;20518;-82
2023/01/16 01:49:37;;;;;;;16.02;13.20;;;9.70;96.30;;;;;;6281126;22;20326;-82
2023/01/16 01:52:04;;;;;;;16.90;13.52;;;9.70;96.20;;;;;;6308620;22;20052;-82
2023/01/16 01:54:39;;;;;;;16.30;12.30;;;9.70;96.20;;;;;;6307789;22;20398;-82
2023/01/16 01:57:08;;;;;;;14.77;12.60;;;9.70;96.20;;;;;;6307603;22;20108;-81
2023/01/16 01:59:40;;;;;;;17.33;13.40;;;9.70;96.10;;;;;;6308245;22;19999;-80
2023/01/16 02:02:08;;;;;;;18.92;14.15;;;9.70;96.20;;;;;;6308209;22;19999;-80
2023/01/16 02:04:39;;;;;;;16.95;13.10;;;9.60;96.30;;;;;;6307591;22;20038;-81
2023/01/16 02:07:09;;;;;;;16.13;12.80;;;9.60;96.30;;;;;;6308399;22;19995;-80
2023/01/16 02:09:35;;;;;;;;;;;9.60;96.40;;;;;;6308632;22;19999;-82
2023/01/16 02:14:55;;;;;;;20.30;13.90;;;9.60;96.20;;;;;;6259384;22;19999;-81
2023/01/16 02:20:25;;;;;;;15.82;12.30;;;9.70;96.40;;;;;;6307965;22;20015;-81
2023/01/16 02:23:49;;;;;;;16.80;12.95;;;9.70;96.40;;;;;;6308643;22;20057;-81
2023/01/16 02:26:35;;;;;;;15.75;12.35;;;9.70;96.20;;;;;;6213774;23;20005;-81
2023/01/16 02:29:25;;;;;;;16.50;12.57;;;9.60;96.20;;;;;;6206972;23;20044;-79
2023/01/16 02:32:06;;;;;;;19.83;14.63;;;9.70;96.40;;;;;;6300315;22;20007;-80
2023/01/16 02:34:50;;;;;;;16.10;12.57;;;9.70;96.30;;;;;;6279878;22;20007;-80
2023/01/16 02:37:21;;;;;;;17.42;12.35;;;9.60;96.30;;;;;;6307801;22;20029;-79
2023/01/16 02:39:59;;;;;;;15.05;12.30;;;9.60;96.40;;;;;;6307645;22;20018;-79
2023/01/16 02:42:41;;;;;;;15.65;12.15;;;9.50;96.40;;;;;;6308066;22;20010;-79
2023/01/16 02:45:28;;;;;;;16.20;13.07;;;9.50;96.40;;;;;;6307325;22;20026;-79
2023/01/16 02:48:12;;;;;;;16.33;12.70;;;9.60;96.40;;;;;;6307903;22;20385;-78
2023/01/16 02:50:44;;;;;;;16.00;12.35;;;9.60;96.40;;;;;;6308308;22;19999;-80
2023/01/16 02:53:22;;;;;;;15.85;12.45;;;9.60;96.40;;;;;;6307919;22;19995;-80
2023/01/16 02:55:57;;;;;;;16.20;12.52;;;9.60;96.40;;;;;;6308332;22;20472;-80
2023/01/16 02:58:25;;;;;;;17.35;13.00;;;9.60;96.50;;;;;;6307354;22;20313;-80
2023/01/16 03:00:53;;;;;;;15.50;11.93;;;9.60;96.30;;;;;;6307798;22;20079;-80
2023/01/16 03:03:54;;;;;;;19.35;12.82;;;9.60;96.20;;;;;;6307106;22;20017;-80
2023/01/16 03:06:19;;;;;;;15.77;12.65;;;9.60;96.30;;;;;;6245455;22;20490;-80
2023/01/16 03:09:13;;;;;;;16.85;12.00;;;9.60;96.40;;;;;;6308094;22;20022;-85
2023/01/16 03:12:15;;;;;;;17.05;12.68;;;9.60;96.40;;;;;;6308244;22;20010;-87
2023/01/16 03:14:59;;;;;;;17.35;12.82;;;9.60;96.40;;;;;;6307609;22;20426;-86
2023/01/16 03:17:54;;;;;;;16.00;12.63;;;9.60;96.40;;;;;;6307727;22;20389;-86
2023/01/16 03:20:44;;;;;;;17.00;13.00;;;9.70;96.30;;;;;;6308666;22;20003;-87
2023/01/16 03:23:21;;;;;;;15.07;12.45;;;9.60;96.30;;;;;;6307504;22;20007;-88
2023/01/16 03:25:55;;;;;;;16.13;13.25;;;9.60;96.30;;;;;;6307692;22;20005;-87
2023/01/16 03:28:28;;;;;;;16.65;13.10;;;9.50;96.30;;;;;;6307697;22;20011;-88
2023/01/16 03:30:59;;;;;;;17.00;13.00;;;9.50;96.60;;;;;;6308147;22;20070;-87
2023/01/16 03:33:44;;;;;;;15.50;12.13;;;9.50;96.40;;;;;;6307923;22;20006;-89
2023/01/16 03:36:21;;;;;;;18.85;14.25;;;9.50;96.40;;;;;;6305908;22;20330;-87
2023/01/16 03:38:50;;;;;;;17.20;13.00;;;9.50;96.40;;;;;;6307196;22;19996;-89
2023/01/16 03:41:21;;;;;;;16.17;12.80;;;9.50;96.50;;;;;;6306143;22;20003;-89
2023/01/16 03:43:51;;;;;;;17.05;12.95;;;9.50;96.40;;;;;;6307786;22;20039;-89
2023/01/16 03:46:47;;;;;;;16.45;13.18;;;9.60;96.40;;;;;;6306918;22;20002;-86
2023/01/16 03:49:20;;;;;;;16.38;13.25;;;9.60;96.40;;;;;;6304566;22;20013;-87
2023/01/16 03:51:51;;;;;;;20.95;15.82;;;9.60;96.40;;;;;;6307352;22;20003;-87
2023/01/16 03:54:28;;;;;;;15.45;13.45;;;9.50;96.20;;;;;;6306508;22;20079;-87
2023/01/16 03:57:14;;;;;;;16.48;13.30;;;9.50;96.30;;;;;;6307328;22;20377;-86
2023/01/16 03:59:43;;;;;;;16.88;13.52;;;9.50;96.30;;;;;;6279609;22;20074;-85
2023/01/16 04:02:14;;;;;;;20.13;15.40;;;9.50;96.30;;;;;;6306708;22;20045;-84
2023/01/16 04:05:15;;;;;;;17.58;13.98;;;9.50;96.30;;;;;;6306972;22;20006;-87
2023/01/16 04:07:51;;;;;;;18.02;13.80;;;9.50;96.40;;;;;;6306201;22;20011;-87
2023/01/16 04:10:28;;;;;;;16.83;13.43;;;9.50;96.40;;;;;;6307718;22;19999;-88
2023/01/16 04:13:00;;;;;;;17.75;13.57;;;9.50;96.40;;;;;;6307691;22;19995;-88
2023/01/16 04:15:30;;;;;;;17.55;14.10;;;9.50;96.50;;;;;;6308177;22;20441;-88
2023/01/16 04:17:55;;;;;;;16.38;12.88;;;9.50;96.50;;;;;;6305983;22;20061;-87
2023/01/16 04:20:23;;;;;;;17.73;13.70;;;9.50;96.30;;;;;;6307816;22;20066;-88
2023/01/16 04:22:49;;;;;;;17.27;13.73;;;9.50;96.30;;;;;;6307622;22;20006;-90
2023/01/16 04:25:17;;;;;;;17.73;13.82;;;9.50;96.40;;;;;;6307415;22;20038;-87
2023/01/16 04:27:42;;;;;;;17.42;14.27;;;9.50;96.40;;;;;;6307384;22;20003;-91
2023/01/16 04:30:09;;;;;;;16.55;12.98;;;9.60;96.40;;;;;;6307825;22;20000;-90
2023/01/16 04:32:34;;;;;;;16.50;13.02;;;9.60;96.40;;;;;;6307854;22;20000;-90
2023/01/16 04:35:00;;;;;;;19.58;14.68;;;9.60;96.30;;;;;;6309936;22;20003;-87
2023/01/16 04:37:26;;;;;;;18.35;14.38;;;9.60;96.20;;;;;;6309698;22;20425;-88
2023/01/16 04:39:52;;;;;;;17.80;13.60;;;9.50;96.20;;;;;;6308505;22;20321;-86
2023/01/16 04:42:18;;;;;;;15.32;12.52;;;9.50;96.50;;;;;;6307833;22;20030;-86
2023/01/16 04:44:44;;;;;;;17.40;13.98;;;9.50;96.40;;;;;;6306313;22;20023;-86
2023/01/16 04:47:10;;;;;;;17.63;12.88;;;9.50;96.20;;;;;;6307171;22;20007;-85
2023/01/16 04:49:36;;;;;;;16.95;13.00;;;9.60;96.30;;;;;;6307357;22;19999;-86
2023/01/16 04:52:02;;;;;;;13.75;12.27;;;9.50;96.30;;;;;;6307381;22;20299;-85
2023/01/16 04:54:28;;;;;;;18.27;13.70;;;9.60;96.30;;;;;;6306876;22;19995;-87
2023/01/16 04:56:53;;;;;;;17.08;13.43;;;9.60;96.30;;;;;;6306912;22;20325;-87
2023/01/16 04:59:19;;;;;;;15.30;12.82;;;9.60;96.30;;;;;;6307349;22;19999;-87
2023/01/16 05:01:45;;;;;;;16.15;13.38;;;9.60;96.30;;;;;;6307385;22;20007;-88
2023/01/16 05:04:13;;;;;;;14.95;12.68;;;9.60;96.20;;;;;;6306719;22;20446;-86
2023/01/16 05:06:39;;;;;;;15.85;12.63;;;9.60;96.30;;;;;;6306594;22;20053;-86
2023/01/16 05:09:05;;;;;;;15.75;12.30;;;9.60;96.30;;;;;;6306930;22;20337;-87
2023/01/16 05:11:32;;;;;;;16.27;12.80;;;9.60;96.30;;;;;;6307096;22;19995;-86
2023/01/16 05:13:58;;;;;;;15.95;12.85;;;9.60;96.30;;;;;;6306405;22;20056;-86
2023/01/16 05:16:23;;;;;;;15.48;12.52;;;9.60;96.30;;;;;;6306842;22;20078;-87
2023/01/16 05:18:49;;;;;;;17.65;11.82;;;9.60;96.30;;;;;;6307133;22;20025;-88
2023/01/16 05:21:15;;;;;;;14.27;12.38;;;9.60;96.30;;;;;;6307060;22;20004;-86
2023/01/16 05:23:40;;;;;;;15.00;11.80;;;9.60;96.20;;;;;;6306401;22;20322;-86
2023/01/16 05:26:06;;;;;;;15.35;12.30;;;9.60;96.30;;;;;;6306471;22;19995;-87
2023/01/16 05:28:33;;;;;;;16.13;12.20;;;9.60;96.30;;;;;;6306561;22;19999;-89
2023/01/16 05:30:59;;;;;;;15.32;12.55;;;9.60;96.40;;;;;;6307576;22;20066;-86
2023/01/16 05:33:24;;;;;;;16.33;12.95;;;9.60;96.40;;;;;;6306750;22;20035;-86
2023/01/16 05:35:56;;;;;;;13.52;11.00;;;9.60;96.40;;;;;;6279047;22;20011;-86
2023/01/16 05:38:22;;;;;;;14.27;11.55;;;9.60;96.40;;;;;;6306514;22;20032;-87
2023/01/16 05:40:48;;;;;;;14.27;11.15;;;9.50;96.40;;;;;;6307427;22;20000;-88
2023/01/16 05:43:14;;;;;;;15.45;11.18;;;9.50;96.50;;;;;;6306760;22;20079;-85
2023/01/16 05:45:40;;;;;;;14.55;12.00;;;9.50;96.50;;;;;;6308575;22;20003;-86
2023/01/16 05:48:06;;;;;;;18.00;13.85;;;9.50;96.50;;;;;;6308824;22;20054;-86
2023/01/16 05:50:32;;;;;;;14.65;11.38;;;9.50;96.80;;;;;;6308673;22;20003;-87
2023/01/16 05:52:57;;;;;;;13.45;11.00;;;9.50;96.60;;;;;;6308868;22;19995;-87
2023/01/16 05:55:24;;;;;;;15.52;10.48;;;9.50;96.60;;;;;;6308564;22;20003;-88
2023/01/16 05:57:50;;;;;;;15.82;11.10;;;9.50;96.70;;;;;;6308641;22;20414;-85
2023/01/16 06:00:16;;;;;;;12.57;10.30;;;9.50;96.80;;;;;;6308510;22;20425;-85
2023/01/16 06:02:42;;;;;;;11.55;8.68;;;9.50;96.60;;;;;;6308666;22;20279;-85
2023/01/16 06:05:08;;;;;;;13.38;10.38;;;9.50;96.80;;;;;;6308303;22;20011;-86
2023/01/16 06:07:34;;;;;;;10.63;7.75;;;9.50;96.80;;;;;;6308831;22;20029;-90
2023/01/16 06:10:00;;;;;;;10.00;7.95;;;9.40;96.80;;;;;;6308496;22;19999;-87
2023/01/16 06:12:26;;;;;;;8.77;7.65;;;9.40;96.90;;;;;;6308101;22;20294;-87
2023/01/16 06:14:52;;;;;;;9.38;7.45;;;9.40;96.80;;;;;;6308251;22;20006;-89
2023/01/16 06:17:18;;;;;;;9.95;6.93;;;9.40;96.60;;;;;;6308751;22;20009;-87
2023/01/16 06:19:45;;;;;;;11.13;8.15;;;9.40;96.50;;;;;;6308835;22;20083;-88
2023/01/16 06:22:11;;;;;;;9.85;7.15;;;9.40;96.70;;;;;;6308545;22;20003;-91
2023/01/16 06:24:37;;;;;;;11.30;8.02;;;9.30;96.70;;;;;;6309083;22;20019;-84
2023/01/16 06:27:03;;;;;;;9.00;7.32;;;9.40;96.70;;;;;;6307767;22;20007;-86
2023/01/16 06:29:28;;;;;;;12.70;7.97;;;9.40;96.60;;;;;;6307473;22;20003;-83
2023/01/16 06:31:54;;;;;;;10.57;7.97;;;9.40;96.70;;;;;;6307847;22;20014;-85
2023/01/16 06:34:20;;;;;;;12.93;9.00;;;9.40;96.60;;;;;;6307091;22;20003;-85
2023/01/16 06:36:47;;;;;;;10.05;7.05;;;9.40;96.50;;;;;;6308088;22;20074;-86
2023/01/16 06:39:14;;;;;;;9.05;7.22;;;9.40;96.60;;;;;;6308158;22;19999;-86
2023/01/16 06:41:40;;;;;;;8.93;6.93;;;9.40;96.70;;;;;;6305956;22;20061;-83
2023/01/16 06:44:05;;;;;;;11.02;7.43;;;9.50;96.70;;;;;;6304419;22;20018;-84
2023/01/16 06:46:31;;;;;;;7.55;6.40;;;9.50;96.60;;;;;;6306536;22;20470;-85
2023/01/16 06:48:57;;;;;;;8.05;6.43;;;9.60;96.50;;;;;;6306121;22;20022;-85
2023/01/16 06:51:23;;;;;;;6.75;5.65;;;9.60;96.20;;;;;;6306060;22;20076;-86
2023/01/16 06:53:48;;;;;;;8.88;6.93;;;9.60;96.30;;;;;;6306731;22;20010;-85
2023/01/16 06:56:14;;;;;;;7.38;6.13;;;9.50;95.90;;;;;;6306305;22;19999;-84
2023/01/16 06:58:40;;;;;;;9.32;6.43;;;;;;;;;;6307239;22;20006;-84
2023/01/16 07:01:06;;;;;;;7.25;6.30;;;9.50;96.00;;;;;;6307205;22;20006;-84
2023/01/16 07:03:32;;;;;;;7.88;5.88;;;9.50;96.20;;;;;;6307179;22;20045;-86
2023/01/16 07:08:50;;;;;;;7.38;5.43;;;9.50;96.10;;;;;;6278420;22;20025;-87
2023/01/16 07:11:22;;;;;;;8.93;6.25;;;9.50;96.30;;;;;;6307705;22;20003;-86
2023/01/16 07:13:48;;;;;;;5.50;4.90;;;9.60;95.90;;;;;;6279916;22;20007;-84
2023/01/16 07:24:35;;;;;;;7.07;5.28;;;9.70;95.50;;;;;;6306186;22;20476;-82
2023/01/16 07:27:04;;;;;;;7.68;5.40;;;9.70;95.70;;;;;;6302775;22;20463;-81
2023/01/16 07:29:32;;;;;;;7.93;5.38;;;9.70;95.50;;;;;;6298675;22;20007;-81
2023/01/16 07:31:59;;;;;;;7.57;5.30;;;9.70;95.70;;;;;;6301110;22;20010;-82
2023/01/16 07:34:24;;;;;;;8.25;4.80;;;9.80;95.70;;;;;;6302981;22;20003;-79
2023/01/16 07:36:50;;;;;;;7.20;4.38;;;9.70;95.00;;;;;;6300139;22;20832;-81
2023/01/16 07:39:16;;;;;;;6.07;3.92;;;9.70;95.20;;;;;;6300558;22;20000;-82
2023/01/16 07:41:41;;;;;;;6.03;4.53;;;9.60;95.00;;;;;;6301373;22;20128;-81
2023/01/16 07:44:07;;;;;;;5.45;3.75;;;9.70;95.30;;;;;;6301167;22;20069;-82
2023/01/16 07:46:33;;;;;;;5.25;3.65;;;9.70;95.20;;;;;;6301597;22;19995;-82
2023/01/16 07:48:59;;;;;;;8.73;4.03;;;9.70;95.40;;;;;;6305222;22;20459;-82
2023/01/16 07:51:24;;;;;;;5.05;3.60;;;9.70;95.30;;;;;;6306685;22;20003;-80
2023/01/16 07:53:50;;;;;;;7.55;3.38;;;9.80;95.50;;;;;;6307895;22;20002;-80
2023/01/16 07:56:16;;;;;;;4.03;2.83;;;;;;;;;;6307912;22;20003;-81
2023/01/16 07:58:43;;;;;;;3.38;2.65;;;9.80;94.90;;;;;;6306762;22;20398;-80
2023/01/16 08:01:09;;;;;;;4.32;2.55;;;9.80;95.00;;;;;;6307197;22;20121;-78
2023/01/16 08:03:36;;;;;;;2.83;2.35;;;;;;;;;;6307326;22;20069;-81
2023/01/16 08:06:02;;;;;;;2.20;1.70;;;9.80;94.60;;;;;;6307662;22;19999;-80
2023/01/16 08:08:29;;;;;;;2.42;1.50;;;9.80;94.60;;;;;;6301334;22;20007;-78
2023/01/16 08:10:58;;;;;;;1.98;1.77;;;9.80;94.50;;;;;;6304508;22;20074;-80
2023/01/16 08:13:25;;;;;;;1.77;1.60;;;9.90;94.70;;;;;;6302721;22;20011;-79
2023/01/16 08:15:51;;;;;;;2.35;1.60;;;9.80;94.50;;;;;;6278831;22;20389;-80
2023/01/16 08:18:21;;;;;;;3.15;1.70;;;9.90;94.50;;;;;;6309649;22;20003;-80
2023/01/16 08:20:47;;;;;;;;;;;9.90;94.50;;;;;;6309722;22;20014;-85
2023/01/16 08:23:12;;;;;;;1.27;0.88;;;10.00;94.10;;;;;;6308536;22;19903;-87
2023/01/16 08:25:38;;;;;;;0.73;0.73;;;9.90;94.30;;;;;;6311591;22;20006;-87
2023/01/16 08:30:53;;;;;;;1.33;1.00;;;10.00;94.00;;;;;;6308528;22;20003;-84
2023/01/16 08:33:19;;;;;;;2.88;0.88;;;10.00;94.20;;;;;;6305658;22;19999;-87
2023/01/16 08:35:45;;;;;;;0.93;0.77;;;10.10;94.00;;;;;;6307842;22;19999;-86
2023/01/16 08:38:10;;;;;;;1.17;0.70;;;10.10;94.00;;;;;;6308804;22;20066;-87
2023/01/16 08:40:36;;;;;;;0.80;0.70;;;10.10;94.10;;;;;;6309673;22;19992;-87
2023/01/16 08:51:22;;;;;;;0.85;0.73;;;10.20;93.50;;;;;;6308065;22;20021;-84
2023/01/16 08:53:49;;;;;;;0.98;0.50;;;10.20;93.30;;;;;;6309045;22;20106;-86
2023/01/16 08:56:15;;;;;;;0.57;0.47;;;10.20;93.50;;;;;;6308321;22;20049;-86
2023/01/16 08:58:41;;;;;;;1.15;0.50;;;10.20;93.20;;;;;;6308772;22;20003;-85
2023/01/16 09:01:07;;;;;;;0.40;0.40;;;10.20;93.40;;;;;;6308002;22;20003;-85
2023/01/16 09:03:34;;;;;;;1.60;0.80;;;10.20;93.40;;;;;;6308947;22;20409;-85
2023/01/16 09:06:00;;;;;;;0.77;0.60;;;10.20;93.40;;;;;;6305609;22;20082;-84
2023/01/16 09:08:25;;;;;;;0.50;0.50;;;10.30;93.50;;;;;;6308020;22;20357;-85
2023/01/16 09:13:50;;;;;;;0.40;0.40;;;10.40;93.30;;;;;;6310657;22;20118;-86
2023/01/16 09:16:21;;;;;;;0.38;0.32;;;10.40;93.20;;;;;;6309215;22;20041;-87
2023/01/16 09:18:48;;;;;;;0.55;0.30;;;10.50;92.50;;;;;;6309256;22;20041;-88
2023/01/16 09:21:14;;;;;;;1.38;0.60;;;10.50;92.70;;;;;;6309742;22;20072;-86
2023/01/16 09:23:40;;;;;;;0.68;0.50;;;10.50;92.80;;;;;;6309808;22;20149;-84
2023/01/16 09:26:06;;;;;;;1.13;0.60;;;10.50;92.80;;;;;;6308664;22;20422;-86
2023/01/16 09:28:32;;;;;;;0.50;0.40;;;10.60;92.60;;;;;;6308642;22;20056;-85
2023/01/16 09:30:58;;;;;;;1.90;0.80;;;10.60;92.80;;;;;;6308427;22;19999;-88
2023/01/16 09:33:24;;;;;;;1.10;0.47;;;10.60;92.30;;;;;;6309319;22;20031;-80
2023/01/16 09:35:49;;;;;;;0.93;0.50;;;10.60;92.40;;;;;;6306781;22;19995;-81
2023/01/16 09:38:16;;;;;;;0.57;0.57;;;;;;;;;;6307084;22;20003;-81
2023/01/16 09:40:49;;;;;;;1.15;0.80;;;10.90;91.00;;;;;;6305160;22;20003;-81
2023/01/16 09:43:37;;;;;;;0.50;0.50;;;11.00;91.60;;;;;;6307553;22;20003;-82
2023/01/16 09:46:22;;;;;;;0.57;0.55;;;11.00;91.50;;;;;;6307696;22;20003;-81
2023/01/16 09:48:55;;;;;;;0.50;0.40;;;11.10;91.50;;;;;;6307909;22;20007;-81
2023/01/16 09:51:36;;;;;;;0.50;0.50;;;11.20;91.00;;;;;;6306992;22;20034;-81
2023/01/16 09:59:54;;;;;;;0.40;0.40;;;11.40;90.50;;;;;;6307499;22;20019;-80
2023/01/16 10:02:25;;;;;;;0.98;0.50;;;11.30;90.80;;;;;;6308196;22;20003;-80
2023/01/16 10:04:53;;;;;;;0.80;0.50;;;11.40;90.30;;;;;;6306261;22;20003;-79
2023/01/16 10:07:45;;;;;;;0.70;0.60;;;11.50;90.50;;;;;;6305408;22;20059;-86
2023/01/16 10:10:43;;;;;;;1.35;0.68;;;11.40;89.10;;;;;;6307211;22;20478;-81
2023/01/16 10:13:28;;;;;;;0.50;0.40;;;11.50;89.60;;;;;;6280388;22;20376;-88
2023/01/16 10:16:20;;;;;;;0.50;0.40;;;11.50;89.60;;;;;;6309986;22;19999;-88
2023/01/16 10:19:12;;;;;;;2.08;0.60;;;11.60;90.20;;;;;;6284654;22;20034;-87
2023/01/16 10:22:00;;;;;;;0.40;0.40;;;11.70;90.20;;;;;;6309237;22;20007;-84
2023/01/16 10:24:55;;;;;;;0.80;0.52;;;11.90;89.80;;;;;;6309023;22;19999;-86
2023/01/16 10:27:44;;;;;;;0.40;0.40;;;11.90;89.80;;;;;;6309474;22;20007;-86
2023/01/16 10:30:17;;;;;;;0.40;0.40;;;11.90;88.20;;;;;;6308127;22;19999;-86
2023/01/16 10:32:45;;;;;;;0.50;0.30;;;11.90;88.60;;;;;;6307390;22;20060;-85
2023/01/16 10:35:23;;;;;;;0.30;0.30;;;11.90;87.30;;;;;;6306731;22;20014;-85
2023/01/16 10:37:50;;;;;;;0.38;0.30;;;12.30;87.60;;;;;;6307151;22;20003;-85
2023/01/16 10:40:19;;;;;;;0.30;0.30;;;12.20;87.90;;;;;;6307144;22;20003;-86
2023/01/16 10:51:10;;;;;;;0.38;0.30;;;12.50;85.30;;;;;;6304922;22;20034;-80
2023/01/16 10:53:37;;;;;;;1.00;0.60;;;12.50;85.40;;;;;;6304889;22;20418;-80
2023/01/16 10:56:03;;;;;;;0.75;0.50;;;12.40;85.70;;;;;;6304324;22;20047;-81
2023/01/16 10:58:36;;;;;;;0.30;0.30;;;12.30;85.60;;;;;;6304958;22;20373;-81
2023/01/16 11:01:06;;;;;;;0.82;0.52;;;12.30;85.50;;;;;;6305243;22;20018;-80
2023/01/16 11:03:36;;;;;;;;;;;12.00;85.50;;;;;;6307074;22;20006;-80
2023/01/16 11:06:11;;;;;;;;;;;12.00;85.50;;;;;;6306886;22;20298;-80
2023/01/16 11:08:37;;;;;;;1.20;0.70;;;11.90;85.30;;;;;;6305973;22;19903;-80
2023/01/16 11:11:04;;;;;;;0.47;0.47;;;11.80;85.70;;;;;;6303925;22;19996;-81
2023/01/16 11:19:20;;;;;;;0.82;0.60;;;11.70;86.80;;;;;;6307917;22;20009;-79
2023/01/16 11:21:55;;;;;;;1.05;0.75;;;11.80;84.50;;;;;;6307097;22;20418;-81
2023/01/16 11:24:28;;;;;;;1.45;0.60;;;11.70;85.10;;;;;;6307332;22;19995;-80
2023/01/16 11:26:55;;;;;;;0.75;0.43;;;11.90;86.50;;;;;;6306728;22;19999;-80
2023/01/16 11:29:23;;;;;;;0.40;0.40;;;12.00;86.50;;;;;;6307507;22;19999;-79
2023/01/16 11:32:03;;;;;;;0.50;0.50;;;12.30;85.40;;;;;;6307987;22;20007;-80
2023/01/16 11:34:29;;;;;;;1.08;0.68;;;12.40;85.60;;;;;;6307924;22;20473;-79
2023/01/16 11:36:59;;;;;;;0.70;0.35;;;12.40;84.00;;;;;;6304722;22;20027;-82
2023/01/16 11:39:32;;;;;;;0.90;0.53;;;12.40;84.70;;;;;;6307436;22;20003;-88
2023/01/16 11:46:01;;;;;;;2.85;1.10;;;12.40;84.10;;;;;;6308457;22;20078;-81
2023/01/16 11:47:41;;;;;;;0.82;0.55;;;12.30;84.50;;;;;;6306016;22;20317;-82
2023/01/16 11:50:29;;;;;;;2.35;0.60;;;12.30;84.40;;;;;;6307225;22;20002;-81
2023/01/16 11:52:55;;;;;;;0.30;0.30;;;12.10;83.50;;;;;;6305058;22;20313;-80
2023/01/16 11:55:25;;;;;;;0.50;0.50;;;12.10;84.20;;;;;;6307184;22;20075;-81
2023/01/16 11:57:56;;;;;;;0.50;0.40;;;12.10;84.60;;;;;;6307153;22;20053;-81
2023/01/16 12:00:40;;;;;;;0.40;0.40;;;12.10;85.00;;;;;;6306964;22;20379;-81
2023/01/16 12:03:21;;;;;;;0.45;0.45;;;12.30;85.40;;;;;;6306908;22;20089;-81
2023/01/16 12:06:11;;;;;;;0.60;0.40;;;12.80;85.70;;;;;;6306489;22;20030;-82
2023/01/16 12:08:50;;;;;;;1.05;0.43;;;13.50;84.20;;;;;;6306246;22;19999;-80
2023/01/16 12:11:25;;;;;;;0.80;0.60;;;13.80;81.20;;;;;;6306889;22;20006;-81
2023/01/16 12:14:20;;;;;;;0.57;0.47;;;13.80;79.70;;;;;;6306954;22;20221;-80
2023/01/16 12:17:18;;;;;;;0.93;0.50;;;13.50;81.00;;;;;;6306396;22;20425;-80
2023/01/16 12:20:02;;;;;;;0.40;0.40;;;13.20;81.30;;;;;;6307666;22;20003;-80
2023/01/16 12:22:52;;;;;;;0.50;0.50;;;13.10;81.70;;;;;;6305910;22;20014;-79
2023/01/16 12:25:34;;;;;;;0.55;0.50;;;12.80;81.40;;;;;;6296679;22;20031;-79
2023/01/16 12:28:20;;;;;;;0.77;0.52;;;12.70;82.20;;;;;;6303293;22;20010;-79
2023/01/16 12:31:16;;;;;;;0.93;0.57;;;12.50;82.70;;;;;;6303312;22;20021;-79
2023/01/16 12:34:03;;;;;;;0.35;0.30;;;12.30;83.30;;;;;;6302739;22;20381;-79
2023/01/16 12:36:38;;;;;;;0.80;0.60;;;12.20;83.80;;;;;;6303217;22;20489;-80
2023/01/16 12:39:04;;;;;;;0.40;0.40;;;12.20;83.80;;;;;;6303194;22;19999;-80
2023/01/16 12:45:11;;;;;;;0.55;0.40;;;12.30;84.90;;;;;;6305973;22;20050;-80
2023/01/16 12:48:02;;;;;;;0.70;0.40;;;12.40;84.30;;;;;;6306900;22;20026;-80
2023/01/16 12:50:56;;;;;;;0.50;0.50;;;12.60;84.90;;;;;;6306004;22;20357;-80
2023/01/16 12:53:39;;;;;;;0.50;0.50;;;12.60;84.10;;;;;;6307175;22;20009;-79
2023/01/16 12:56:29;;;;;;;0.70;0.40;;;12.50;82.60;;;;;;6308348;22;20003;-80
2023/01/16 12:59:10;;;;;;;0.52;0.45;;;12.50;83.40;;;;;;6309019;22;19999;-80
2023/01/16 13:01:43;;;;;;;0.50;0.50;;;12.40;83.80;;;;;;6309082;22;20000;-80
2023/01/16 13:04:15;;;;;;;0.45;0.40;;;12.30;84.00;;;;;;6308022;22;20373;-81
2023/01/16 13:06:50;;;;;;;0.82;0.50;;;12.30;84.00;;;;;;6308408;22;19991;-81
2023/01/16 13:13:20;;;;;;;1.20;0.50;;;12.20;84.10;;;;;;6308031;22;19999;-80
2023/01/16 13:15:33;;;;;;;0.52;0.50;;;11.80;84.70;;;;;;6317251;22;20014;-86
2023/01/16 13:18:01;;;;;;;0.98;0.57;;;11.70;84.70;;;;;;6310915;22;20003;-88
2023/01/16 13:20:28;;;;;;;0.88;0.57;;;11.70;84.60;;;;;;6309084;22;20017;-86
2023/01/16 13:23:16;;;;;;;2.25;0.80;;;11.70;84.70;;;;;;6310489;22;20007;-85
2023/01/16 13:25:48;;;;;;;0.70;0.60;;;11.60;84.60;;;;;;6310024;22;20425;-81
2023/01/16 13:28:50;;;;;;;0.85;0.68;;;11.60;84.60;;;;;;6281213;22;20037;-80
2023/01/16 13:31:25;;;;;;;0.95;0.70;;;11.50;85.10;;;;;;6282720;22;20003;-81
2023/01/16 13:33:56;;;;;;;1.10;0.70;;;11.50;85.10;;;;;;6308803;22;20049;-83
2023/01/16 13:36:37;;;;;;;2.05;0.75;;;11.50;85.60;;;;;;6310842;22;20003;-84
2023/01/16 13:39:26;;;;;;;2.40;0.70;;;11.50;85.70;;;;;;6304975;22;20004;-81
2023/01/16 13:41:55;;;;;;;1.17;0.77;;;11.50;86.60;;;;;;6275093;22;20011;-86
2023/01/16 13:47:28;;;;;;;2.40;1.25;;;11.40;86.70;;;;;;6305296;22;20392;-81
2023/01/16 13:50:10;;;;;;;2.05;0.73;;;11.40;86.20;;;;;;6308659;22;20496;-87
2023/01/16 13:52:42;;;;;;;0.68;0.57;;;11.40;86.20;;;;;;6307455;22;20003;-81
2023/01/16 13:55:34;;;;;;;0.82;0.73;;;11.30;86.30;;;;;;6309117;22;20566;-86
2023/01/16 13:58:26;;;;;;;1.05;0.70;;;11.30;86.60;;;;;;6309315;22;20026;-80
2023/01/16 14:00:58;;;;;;;2.83;1.58;;;11.30;87.00;;;;;;6306789;22;20030;-86
2023/01/16 14:03:30;;;;;;;1.27;0.80;;;11.30;86.90;;;;;;6310576;22;20333;-87
2023/01/16 14:06:10;;;;;;;0.60;0.60;;;11.30;87.10;;;;;;6313254;22;20003;-89
2023/01/16 14:09:07;;;;;;;1.48;0.75;;;11.30;87.60;;;;;;6315153;22;20003;-87
2023/01/16 14:11:41;;;;;;;1.17;0.82;;;;;;;;;;6309706;22;20029;-85
2023/01/16 14:17:11;;;;;;;0.82;0.70;;;11.20;87.60;;;;;;6311090;22;20047;-86
2023/01/16 14:19:41;;;;;;;1.10;0.70;;;11.10;87.50;;;;;;6309428;22;20408;-87
2023/01/16 14:24:47;;;;;;;0.82;0.82;;;11.10;87.80;;;;;;6313158;22;20449;-85